createdAt,value
2023-04-21T00:00:28.036Z,13.38
2023-04-21T00:03:48.844Z,12.30
2023-04-21T00:10:22.156Z,11.28
2023-04-21T00:13:39.830Z,11.65
2023-04-21T00:16:57.073Z,12.60
2023-04-21T00:20:16.326Z,12.20
2023-04-21T00:23:32.944Z,12.43
2023-04-21T00:26:49.312Z,11.85
2023-04-21T00:30:06.303Z,12.53
2023-04-21T00:33:25.805Z,12.00
2023-04-21T00:36:44.287Z,12.58
2023-04-21T00:40:01.339Z,13.25
2023-04-21T00:43:18.258Z,12.78
2023-04-21T00:46:37.594Z,12.23
2023-04-21T00:49:54.742Z,11.78
2023-04-21T00:53:11.605Z,11.90
2023-04-21T00:56:29.640Z,11.90
2023-04-21T00:59:46.249Z,11.98
2023-04-21T01:03:03.271Z,12.43
2023-04-21T01:06:21.327Z,11.00
2023-04-21T01:09:39.628Z,11.53
2023-04-21T01:12:57.574Z,11.98
2023-04-21T01:16:15.436Z,12.05
2023-04-21T01:19:33.182Z,11.25
2023-04-21T01:22:53.571Z,11.95
2023-04-21T01:26:10.776Z,11.93
2023-04-21T01:29:27.534Z,11.48
2023-04-21T01:32:44.484Z,11.50
2023-04-21T01:36:02.231Z,11.65
2023-04-21T01:39:18.899Z,11.33
2023-04-21T01:42:37.864Z,11.00
2023-04-21T01:45:55.007Z,12.08
2023-04-21T01:49:13.569Z,12.88
2023-04-21T01:52:30.298Z,12.48
2023-04-21T01:55:47.026Z,12.43
2023-04-21T01:59:03.644Z,13.08
2023-04-21T02:02:20.200Z,13.08
2023-04-21T02:05:37.945Z,12.78
2023-04-21T02:08:54.394Z,14.60
2023-04-21T02:12:11.295Z,15.25
2023-04-21T02:15:30.116Z,14.78
2023-04-21T02:18:46.846Z,13.73
2023-04-21T02:22:03.633Z,14.95
2023-04-21T02:25:21.206Z,15.20
2023-04-21T02:28:37.688Z,14.60
2023-04-21T02:32:01.167Z,14.38
2023-04-21T02:35:16.219Z,16.80
2023-04-21T02:38:33.977Z,16.65
2023-04-21T02:41:51.415Z,18.93
2023-04-21T02:45:08.490Z,21.73
2023-04-21T02:48:25.310Z,21.63
2023-04-21T02:51:42.392Z,21.38
2023-04-21T02:54:59.226Z,20.65
2023-04-21T02:58:15.799Z,20.45
2023-04-21T03:01:32.561Z,21.10
2023-04-21T03:04:49.963Z,19.63
2023-04-21T03:08:06.625Z,20.75
2023-04-21T03:11:24.426Z,20.33
2023-04-21T03:14:43.157Z,19.50
2023-04-21T03:17:59.978Z,19.03
2023-04-21T03:21:17.112Z,18.88
2023-04-21T03:24:33.982Z,18.08
2023-04-21T03:27:50.345Z,17.78
2023-04-21T03:31:06.962Z,18.58
2023-04-21T03:34:24.680Z,19.78
2023-04-21T03:37:41.026Z,20.25
2023-04-21T03:41:04.900Z,19.10
2023-04-21T03:44:22.319Z,18.60
2023-04-21T03:47:38.952Z,18.65
2023-04-21T03:50:55.645Z,18.90
2023-04-21T03:54:12.639Z,19.35
2023-04-21T03:57:30.984Z,19.40
2023-04-21T04:00:48.143Z,20.17
2023-04-21T04:04:05.473Z,19.20
2023-04-21T04:07:22.691Z,21.58
2023-04-21T04:10:39.330Z,19.60
2023-04-21T04:13:55.616Z,19.53
2023-04-21T04:17:12.744Z,21.13
2023-04-21T04:20:29.536Z,19.73
2023-04-21T04:23:46.329Z,19.68
2023-04-21T04:27:04.284Z,20.78
2023-04-21T04:30:22.333Z,22.25
2023-04-21T04:33:38.740Z,20.50
2023-04-21T04:36:57.913Z,21.05
2023-04-21T04:40:17.603Z,20.50
2023-04-21T04:43:34.328Z,19.60
2023-04-21T04:46:53.542Z,19.88
2023-04-21T04:50:10.174Z,19.00
2023-04-21T04:53:26.793Z,20.70
2023-04-21T04:56:44.042Z,18.33
2023-04-21T05:00:04.248Z,19.35
2023-04-21T05:03:21.829Z,20.63
2023-04-21T05:06:38.392Z,18.05
2023-04-21T05:09:55.433Z,19.88
2023-04-21T05:13:12.242Z,18.53
2023-04-21T05:16:30.096Z,19.10
2023-04-21T05:19:49.371Z,18.40
2023-04-21T05:26:21.754Z,18.98
2023-04-21T05:29:39.300Z,18.23
2023-04-21T05:32:55.751Z,17.00
2023-04-21T05:36:15.285Z,15.53
2023-04-21T05:39:39.520Z,17.83
2023-04-21T05:42:59.213Z,15.63
2023-04-21T05:46:20.393Z,15.45
2023-04-21T05:49:41.934Z,15.00
2023-04-21T05:53:06.715Z,14.98
2023-04-21T05:56:26.723Z,15.20
2023-04-21T05:59:46.842Z,15.53
2023-04-21T06:03:07.701Z,14.83
2023-04-21T06:06:28.194Z,13.38
2023-04-21T06:09:46.197Z,13.68
2023-04-21T06:13:22.439Z,12.45
2023-04-21T06:16:58.043Z,12.83
2023-04-21T06:24:44.234Z,13.88
2023-04-21T06:28:21.776Z,14.40
2023-04-21T06:36:06.163Z,14.40
2023-04-21T06:40:07.397Z,13.65
2023-04-21T06:43:48.952Z,14.20
2023-04-21T06:47:41.877Z,13.68
2023-04-21T06:51:58.580Z,12.40
2023-04-21T06:55:36.513Z,14.03
2023-04-21T06:59:17.349Z,13.20
2023-04-21T07:03:06.573Z,13.08
2023-04-21T07:06:54.878Z,13.48
2023-04-21T07:10:22.085Z,13.93
2023-04-21T07:13:38.613Z,13.73
2023-04-21T07:16:58.735Z,12.75
2023-04-21T07:20:29.117Z,13.98
2023-04-21T07:23:57.367Z,15.28
2023-04-21T07:27:26.931Z,15.63
2023-04-21T07:30:45.835Z,15.48
2023-04-21T07:34:07.860Z,14.68
2023-04-21T07:37:26.077Z,15.18
2023-04-21T07:41:00.357Z,13.90
2023-04-21T07:44:29.139Z,12.70
2023-04-21T07:47:47.320Z,14.23
2023-04-21T07:51:12.852Z,13.28
2023-04-21T07:54:33.880Z,12.90
2023-04-21T07:57:51.880Z,13.98
2023-04-21T08:01:10.032Z,12.63
2023-04-21T08:04:32.334Z,11.50
2023-04-21T08:08:08.456Z,11.13
2023-04-21T08:11:31.815Z,10.58
2023-04-21T08:14:49.322Z,31.78
2023-04-21T08:18:05.724Z,11.35
2023-04-21T08:21:22.347Z,11.85
2023-04-21T08:24:39.141Z,10.30
2023-04-21T08:27:58.450Z,9.40
2023-04-21T08:31:21.433Z,8.70
2023-04-21T08:34:37.612Z,8.28
2023-04-21T08:38:00.862Z,8.28
2023-04-21T08:41:19.032Z,8.58
2023-04-21T08:44:36.166Z,7.30
2023-04-21T08:47:53.291Z,7.85
2023-04-21T08:51:10.650Z,7.15
2023-04-21T08:54:28.615Z,8.55
2023-04-21T08:57:45.179Z,9.15
2023-04-21T09:01:03.584Z,8.53
2023-04-21T09:07:51.644Z,7.95
2023-04-21T09:11:14.874Z,8.03
2023-04-21T09:14:36.856Z,8.00
2023-04-21T09:17:56.602Z,8.75
2023-04-21T09:21:21.909Z,7.93
2023-04-21T09:24:38.597Z,9.58
2023-04-21T09:27:56.638Z,35.58
2023-04-21T09:31:21.126Z,10.23
2023-04-21T09:34:37.474Z,7.68
2023-04-21T09:37:56.204Z,8.20
2023-04-21T09:41:12.797Z,7.95
2023-04-21T09:44:31.903Z,7.35
2023-04-21T09:47:50.890Z,7.55
2023-04-21T09:54:29.990Z,6.33
2023-04-21T09:57:49.673Z,5.83
2023-04-21T10:01:08.432Z,6.30
2023-04-21T10:07:41.491Z,5.93
2023-04-21T10:10:58.631Z,4.95
2023-04-21T10:14:16.589Z,3.73
2023-04-21T10:17:34.985Z,4.10
2023-04-21T10:21:07.620Z,4.35
2023-04-21T10:24:27.824Z,4.48
2023-04-21T10:27:47.606Z,4.60
2023-04-21T10:31:40.141Z,35.95
2023-04-21T10:34:56.813Z,34.28
2023-04-21T10:38:16.117Z,7.40
2023-04-21T10:41:40.009Z,4.78
2023-04-21T10:45:08.339Z,4.03
2023-04-21T10:48:26.568Z,4.58
2023-04-21T10:52:17.362Z,3.90
2023-04-21T10:55:36.876Z,4.45
2023-04-21T10:58:54.204Z,3.93
2023-04-21T11:02:11.890Z,3.88
2023-04-21T11:05:40.331Z,3.43
2023-04-21T11:09:10.332Z,4.23
2023-04-21T11:12:27.755Z,4.00
2023-04-21T11:15:44.578Z,4.18
2023-04-21T11:19:01.345Z,4.30
2023-04-21T11:22:18.186Z,4.50
2023-04-21T11:25:35.030Z,4.33
2023-04-21T11:28:56.595Z,4.40
2023-04-21T11:32:17.983Z,4.45
2023-04-21T11:35:34.901Z,4.25
2023-04-21T11:38:52.160Z,4.80
2023-04-21T11:42:08.890Z,4.68
2023-04-21T11:45:28.835Z,4.20
2023-04-21T11:48:45.425Z,4.73
2023-04-21T11:52:03.998Z,4.65
2023-04-21T11:55:25.164Z,4.40
2023-04-21T11:58:42.313Z,4.38
2023-04-21T12:02:00.298Z,4.30
2023-04-21T12:05:19.381Z,4.80
2023-04-21T12:11:55.830Z,5.18
2023-04-21T12:15:14.490Z,18.45
2023-04-21T12:18:36.682Z,5.60
2023-04-21T12:21:53.357Z,4.20
2023-04-21T12:25:27.865Z,3.88
2023-04-21T12:28:47.563Z,3.78
2023-04-21T12:32:04.020Z,3.63
2023-04-21T12:35:21.674Z,3.63
2023-04-21T12:38:39.811Z,3.45
2023-04-21T12:41:56.206Z,3.13
2023-04-21T12:45:14.650Z,3.40
2023-04-21T12:48:31.538Z,3.75
2023-04-21T12:51:55.132Z,3.43
2023-04-21T12:55:15.158Z,3.48
2023-04-21T12:58:31.638Z,3.38
2023-04-21T13:01:48.999Z,3.65
2023-04-21T13:05:05.876Z,3.90
2023-04-21T13:08:22.410Z,2.85
2023-04-21T13:11:38.782Z,3.23
2023-04-21T13:14:55.028Z,2.88
2023-04-21T13:18:11.641Z,2.98
2023-04-21T13:21:28.735Z,2.98
2023-04-21T13:24:45.566Z,3.13
2023-04-21T13:28:02.120Z,2.98
2023-04-21T13:31:19.474Z,3.48
2023-04-21T13:34:36.699Z,3.38
2023-04-21T13:37:52.996Z,3.45
2023-04-21T13:41:09.875Z,2.80
2023-04-21T13:44:26.706Z,3.08
2023-04-21T13:47:44.090Z,11.60
2023-04-21T13:51:02.674Z,8.08
2023-04-21T13:54:19.234Z,3.15
2023-04-21T13:57:36.173Z,2.98
2023-04-21T14:00:52.589Z,5.35
2023-04-21T14:04:09.741Z,3.33
2023-04-21T14:07:26.539Z,4.03
2023-04-21T14:10:43.857Z,2.93
2023-04-21T14:17:21.543Z,7.25
2023-04-21T14:20:40.211Z,3.53
2023-04-21T14:23:56.649Z,3.40
2023-04-21T14:27:15.796Z,3.10
2023-04-21T14:30:33.050Z,3.10
2023-04-21T14:33:51.828Z,2.70
2023-04-21T14:37:08.117Z,3.13
2023-04-21T14:40:25.145Z,3.23
2023-04-21T14:43:41.410Z,2.93
2023-04-21T14:47:09.132Z,2.90
2023-04-21T14:50:17.794Z,3.00
2023-04-21T14:53:34.508Z,2.68
2023-04-21T14:56:51.216Z,2.85
2023-04-21T15:00:08.588Z,2.60
2023-04-21T15:03:25.434Z,2.68
2023-04-21T15:06:42.337Z,6.45
2023-04-21T15:09:58.794Z,3.98
2023-04-21T15:13:15.296Z,3.10
2023-04-21T15:16:32.023Z,3.18
2023-04-21T15:19:48.697Z,3.28
2023-04-21T15:23:07.755Z,3.00
2023-04-21T15:26:25.260Z,3.48
2023-04-21T15:29:42.036Z,2.70
2023-04-21T15:32:58.426Z,2.70
2023-04-21T15:36:15.373Z,3.28
2023-04-21T15:39:31.884Z,2.88
2023-04-21T15:42:48.469Z,3.00
2023-04-21T15:46:06.661Z,2.73
2023-04-21T15:49:25.716Z,3.30
2023-04-21T15:52:44.297Z,3.68
2023-04-21T15:56:00.712Z,2.75
2023-04-21T15:59:18.257Z,3.00
2023-04-21T16:02:35.753Z,4.35
2023-04-21T16:05:52.566Z,29.68
2023-04-21T16:09:10.137Z,6.85
2023-04-21T16:12:27.297Z,3.48
2023-04-21T16:15:43.995Z,2.90
2023-04-21T16:19:01.177Z,2.90
2023-04-21T16:22:21.108Z,2.88
2023-04-21T16:25:38.235Z,3.20
2023-04-21T16:28:57.869Z,2.55
2023-04-21T16:32:17.047Z,3.55
2023-04-21T16:35:34.213Z,3.10
2023-04-21T16:38:54.079Z,3.18
2023-04-21T16:42:10.649Z,3.08
2023-04-21T16:45:29.279Z,2.98
2023-04-21T16:48:48.339Z,2.90
2023-04-21T16:52:07.507Z,2.73
2023-04-21T16:55:24.319Z,3.00
2023-04-21T16:58:42.097Z,2.70
2023-04-21T17:01:58.377Z,3.13
2023-04-21T17:05:17.275Z,2.90
2023-04-21T17:08:33.639Z,2.80
2023-04-21T17:11:50.563Z,3.85
2023-04-21T17:15:10.368Z,2.90
2023-04-21T17:18:27.016Z,3.78
2023-04-21T17:21:44.788Z,3.20
2023-04-21T17:25:01.308Z,2.68
2023-04-21T17:28:17.857Z,3.03
2023-04-21T17:31:34.624Z,2.70
2023-04-21T17:34:51.168Z,3.23
2023-04-21T17:38:08.392Z,3.90
2023-04-21T17:41:25.098Z,3.15
2023-04-21T17:44:42.045Z,3.23
2023-04-21T17:48:01.673Z,3.45
2023-04-21T17:51:19.961Z,3.15
2023-04-21T17:54:37.890Z,3.47
2023-04-21T17:58:02.254Z,4.65
2023-04-21T18:01:18.804Z,4.00
2023-04-21T18:04:36.004Z,4.28
2023-04-21T18:07:54.202Z,4.18
2023-04-21T18:11:12.954Z,4.45
2023-04-21T18:14:29.474Z,4.53
2023-04-21T18:17:46.166Z,3.90
2023-04-21T18:21:05.112Z,4.45
2023-04-21T18:24:23.904Z,4.50
2023-04-21T18:27:40.914Z,5.00
2023-04-21T18:30:58.376Z,5.38
2023-04-21T18:34:15.315Z,5.25
2023-04-21T18:37:31.849Z,5.38
2023-04-21T18:40:49.685Z,6.20
2023-04-21T18:44:06.809Z,5.45
2023-04-21T18:47:23.624Z,5.60
2023-04-21T18:50:41.011Z,5.58
2023-04-21T18:53:57.786Z,6.18
2023-04-21T18:57:15.051Z,5.78
2023-04-21T19:00:32.865Z,6.83
2023-04-21T19:03:50.272Z,7.38
2023-04-21T19:07:09.011Z,7.65
2023-04-21T19:10:26.889Z,8.53
2023-04-21T19:13:43.532Z,8.10
2023-04-21T19:17:00.252Z,8.73
2023-04-21T19:20:19.915Z,8.88
2023-04-21T19:23:36.575Z,9.28
2023-04-21T19:26:53.557Z,7.88
2023-04-21T19:30:20.320Z,8.63
2023-04-21T19:33:36.992Z,7.58
2023-04-21T19:36:54.618Z,7.65
2023-04-21T19:40:12.763Z,8.43
2023-04-21T19:43:29.092Z,8.35
2023-04-21T19:46:46.845Z,8.55
2023-04-21T19:50:03.376Z,10.40
2023-04-21T19:53:19.991Z,10.38
2023-04-21T19:56:37.538Z,11.93
2023-04-21T19:59:53.960Z,11.93
2023-04-21T20:03:12.589Z,13.20
2023-04-21T20:06:29.538Z,12.95
2023-04-21T20:09:46.495Z,12.78
2023-04-21T20:13:03.074Z,13.15
2023-04-21T20:16:20.901Z,12.50
2023-04-21T20:19:39.792Z,12.65
2023-04-21T20:22:56.832Z,13.63
2023-04-21T20:26:13.433Z,12.65
2023-04-21T20:29:30.421Z,11.45
2023-04-21T20:32:46.905Z,11.53
2023-04-21T20:36:05.917Z,10.78
2023-04-21T20:39:22.848Z,11.33
2023-04-21T20:42:39.711Z,11.38
2023-04-21T20:45:56.974Z,11.18
2023-04-21T20:49:13.431Z,10.13
2023-04-21T20:52:32.257Z,10.15
2023-04-21T20:55:49.181Z,10.23
2023-04-21T20:59:06.967Z,11.33
2023-04-21T21:02:23.550Z,11.13
2023-04-21T21:05:40.909Z,11.70
2023-04-21T21:08:57.776Z,11.23
2023-04-21T21:12:16.109Z,12.43
2023-04-21T21:15:33.418Z,10.88
2023-04-21T21:18:50.326Z,11.58
2023-04-21T21:22:06.675Z,10.90
2023-04-21T21:25:23.636Z,11.30
2023-04-21T21:28:40.310Z,10.70
2023-04-21T21:31:56.798Z,10.50
2023-04-21T21:35:14.912Z,10.23
2023-04-21T21:38:31.238Z,11.55
2023-04-21T21:41:47.942Z,10.08
2023-04-21T21:45:04.449Z,10.63
2023-04-21T21:48:21.905Z,10.10
2023-04-21T21:51:38.310Z,9.50
2023-04-21T21:54:55.030Z,10.08
2023-04-21T21:58:11.508Z,9.85
2023-04-21T22:01:28.096Z,10.05
2023-04-21T22:04:44.810Z,10.00
2023-04-21T22:08:01.291Z,10.10
2023-04-21T22:11:18.031Z,10.05
2023-04-21T22:14:35.330Z,9.70
2023-04-21T22:17:51.771Z,9.65
2023-04-21T22:21:09.337Z,9.25
2023-04-21T22:24:26.958Z,9.05
2023-04-21T22:27:43.513Z,9.23
2023-04-21T22:31:00.052Z,8.75
2023-04-21T22:34:17.694Z,9.40
2023-04-21T22:37:34.388Z,9.45
2023-04-21T22:40:51.403Z,8.93
2023-04-21T22:44:08.882Z,9.03
2023-04-21T22:47:25.567Z,9.25
2023-04-21T22:50:44.426Z,8.75
2023-04-21T22:54:00.969Z,9.15
2023-04-21T22:57:19.189Z,9.45
2023-04-21T23:00:35.692Z,9.00
2023-04-21T23:03:52.658Z,8.85
2023-04-21T23:07:09.179Z,9.60
2023-04-21T23:10:25.762Z,9.55
2023-04-21T23:13:42.971Z,10.40
2023-04-21T23:17:00.159Z,10.68
2023-04-21T23:20:19.742Z,10.25
2023-04-21T23:26:50.693Z,10.63
2023-04-21T23:30:07.448Z,10.60
2023-04-21T23:33:25.185Z,11.20
2023-04-21T23:36:42.523Z,9.48
2023-04-21T23:39:59.747Z,10.48
2023-04-21T23:43:16.607Z,10.43
2023-04-21T23:46:33.007Z,11.70
2023-04-21T23:49:52.463Z,10.95
2023-04-21T23:53:10.074Z,11.50
2023-04-21T23:56:26.960Z,11.35
2023-04-21T23:59:43.442Z,12.98
